Time;durP1;ratioP1;P1;durP2;ratioP2;P2;SDS_P1;SDS_P2;PMS_P1;PMS_P2;Temp;Humidity;BMP_temperature;BMP_pressure;BME280_temperature;BME280_humidity;BME280_pressure;Samples;Min_cycle;Max_cycle;Signal;HPM_P1;HPM_P2
2021/07/20 00:02:53;;;;;;;;;11.50;11.50;;;;;28.50;42.44;101069.03;5080396;28;57017;-75
2021/07/20 00:05:23;;;;;;;;;13.25;13.25;;;;;28.46;42.73;101070.16;5070182;28;45612;-75
2021/07/20 00:07:52;;;;;;;;;16.50;15.75;;;;;28.40;42.16;101062.47;5080713;28;46292;-75
2021/07/20 00:10:23;;;;;;;;;15.75;14.25;;;;;28.42;42.44;101058.75;5080701;28;45309;-75
2021/07/20 00:12:49;;;;;;;;;15.00;13.75;;;;;28.38;42.72;101061.69;5063873;28;45362;-75
2021/07/20 00:15:14;;;;;;;;;17.00;17.00;;;;;28.39;42.53;101066.97;5046747;28;45440;-75
2021/07/20 00:17:42;;;;;;;;;14.00;13.75;;;;;28.35;42.67;101061.91;5063759;28;45679;-75
2021/07/20 00:20:08;;;;;;;;;13.75;13.00;;;;;28.31;42.36;101054.97;5063606;28;45874;-74
2021/07/20 00:22:34;;;;;;;;;14.50;14.50;;;;;28.29;42.89;101052.38;5081566;27;45250;-76
2021/07/20 00:24:59;;;;;;;;;12.75;12.75;;;;;28.27;42.66;101054.28;5081601;27;45460;-74
2021/07/20 00:27:25;;;;;;;;;13.75;13.75;;;;;28.25;42.33;101058.00;5081244;27;45901;-74
2021/07/20 00:29:50;;;;;;;;;14.75;14.50;;;;;28.20;42.29;101046.66;5080369;28;45533;-74
2021/07/20 00:32:16;;;;;;;;;16.25;15.75;;;;;28.19;43.10;101050.31;5079650;27;47023;-75
2021/07/20 00:34:41;;;;;;;;;13.00;13.00;;;;;28.22;42.50;101050.97;5081349;27;52234;-75
2021/07/20 00:37:06;;;;;;;;;13.25;13.00;;;;;28.23;42.86;101041.97;5079836;28;47202;-75
2021/07/20 00:39:32;;;;;;;;;16.00;16.00;;;;;28.19;42.48;101042.25;5062521;28;63244;-75
2021/07/20 00:41:57;;;;;;;;;15.00;15.00;;;;;28.16;42.44;101048.69;5081789;27;45918;-75
2021/07/20 00:44:23;;;;;;;;;14.00;13.75;;;;;28.15;43.15;101055.88;5080386;27;64976;-75
2021/07/20 00:46:48;;;;;;;;;16.00;14.00;;;;;28.16;42.86;101040.63;5081322;27;46040;-75
2021/07/20 00:49:13;;;;;;;;;13.50;13.50;;;;;28.13;42.43;101057.75;5080453;27;62493;-75
2021/07/20 00:51:39;;;;;;;;;15.50;13.75;;;;;28.11;42.85;101051.63;5081268;27;45416;-75
2021/07/20 00:54:04;;;;;;;;;18.00;15.50;;;;;28.07;42.67;101047.41;5081003;27;45173;-75
2021/07/20 00:56:31;;;;;;;;;11.50;11.50;;;;;28.07;42.98;101055.47;5079734;27;46315;-74
2021/07/20 00:58:57;;;;;;;;;12.25;12.25;;;;;28.07;42.55;101050.09;5079589;28;45256;-75
2021/07/20 01:01:22;;;;;;;;;15.75;13.00;;;;;28.01;42.74;101042.38;5079090;28;61465;-75
2021/07/20 01:03:48;;;;;;;;;14.50;14.25;;;;;28.02;42.58;101049.47;5062884;28;45266;-75
2021/07/20 01:06:13;;;;;;;;;14.00;13.00;;;;;27.98;42.81;101047.94;5062440;28;47037;-75
2021/07/20 01:08:40;;;;;;;;;12.75;12.75;;;;;28.00;43.05;101043.34;5062769;28;45346;-75
2021/07/20 01:11:06;;;;;;;;;14.50;12.50;;;;;27.97;42.53;101051.56;5063003;28;45487;-75
2021/07/20 01:13:31;;;;;;;;;13.50;12.00;;;;;27.93;43.03;101043.78;5062272;28;46096;-75
2021/07/20 01:15:56;;;;;;;;;11.75;10.75;;;;;27.95;42.96;101052.59;5079644;28;45475;-75
2021/07/20 01:18:23;;;;;;;;;18.00;14.00;;;;;27.94;42.89;101048.19;5080688;27;45310;-77
2021/07/20 01:20:51;;;;;;;;;12.25;12.25;;;;;27.96;42.57;101052.50;5062473;28;45353;-75
2021/07/20 01:23:23;;;;;;;;;14.00;13.25;;;;;27.97;42.67;101054.25;5079491;28;45283;-75
2021/07/20 01:25:49;;;;;;;;;15.25;15.25;;;;;27.99;42.66;101064.91;5064141;27;47516;-75
2021/07/20 01:28:18;;;;;;;;;14.25;12.00;;;;;27.95;42.60;101063.34;5080356;27;45253;-75
2021/07/20 01:30:46;;;;;;;;;14.50;14.50;;;;;27.90;42.18;101049.34;5062859;28;45296;-75
2021/07/20 01:33:11;;;;;;;;;19.50;16.50;;;;;27.92;42.20;101061.72;5062462;28;45463;-75
2021/07/20 01:35:37;;;;;;;;;13.00;12.25;;;;;27.86;42.28;101048.63;5062246;28;45460;-75
2021/07/20 01:38:04;;;;;;;;;19.75;16.75;;;;;27.89;42.81;101061.91;5062146;28;45564;-75
2021/07/20 01:40:30;;;;;;;;;14.75;14.00;;;;;27.85;42.52;101061.19;5059141;28;45425;-75
2021/07/20 01:42:55;;;;;;;;;14.25;14.25;;;;;27.86;43.05;101057.56;5077718;28;46037;-75
2021/07/20 01:45:20;;;;;;;;;13.50;13.50;;;;;27.86;42.45;101054.00;5077840;28;57654;-75
2021/07/20 01:47:46;;;;;;;;;14.00;13.00;;;;;27.86;43.29;101059.38;5078614;28;52944;-75
2021/07/20 01:50:13;;;;;;;;;16.00;15.00;;;;;27.81;42.64;101059.66;5080406;27;45371;-75
2021/07/20 01:52:39;;;;;;;;;15.25;14.25;;;;;27.82;42.68;101060.53;5062099;28;45189;-75
2021/07/20 01:55:04;;;;;;;;;17.00;15.50;;;;;27.81;42.76;101054.28;5078549;28;68910;-75
2021/07/20 01:57:30;;;;;;;;;19.25;17.50;;;;;27.77;42.91;101049.19;5080063;28;45443;-75
2021/07/20 01:59:55;;;;;;;;;15.50;15.25;;;;;27.78;42.43;101053.59;5080561;27;45873;-75
2021/07/20 02:02:49;;;;;;;;;15.75;14.50;;;;;27.80;42.74;101054.34;5078908;28;45410;-75
2021/07/20 02:10:43;;;;;;;;;14.00;13.75;;;;;27.83;43.46;101054.19;5064861;28;45294;-75
2021/07/20 02:13:08;;;;;;;;;18.25;15.25;;;;;27.84;42.89;101062.16;5078894;28;45338;-75
2021/07/20 02:15:35;;;;;;;;;14.75;14.75;;;;;27.83;42.62;101056.88;5061714;28;45222;-75
2021/07/20 02:18:00;;;;;;;;;16.50;14.75;;;;;27.80;42.65;101059.72;5061934;28;45273;-75
2021/07/20 02:20:27;;;;;;;;;19.25;17.25;;;;;27.72;43.16;101062.88;5060948;28;58035;-75
2021/07/20 02:22:53;;;;;;;;;18.50;15.50;;;;;27.75;42.67;101059.13;5061910;28;45453;-75
2021/07/20 02:25:18;;;;;;;;;17.75;16.75;;;;;27.75;42.55;101062.69;5061498;28;46279;-75
2021/07/20 02:27:43;;;;;;;;;16.00;15.25;;;;;27.76;42.99;101058.19;5077761;28;62613;-75
2021/07/20 02:30:11;;;;;;;;;17.50;15.75;;;;;27.71;42.50;101063.78;5077742;28;64674;-75
2021/07/20 02:32:36;;;;;;;;;16.50;16.00;;;;;27.70;43.23;101053.16;5061769;28;45621;-75
2021/07/20 02:35:02;;;;;;;;;17.00;16.00;;;;;27.69;42.61;101062.16;5061082;28;55934;-75
2021/07/20 02:37:28;;;;;;;;;17.25;16.25;;;;;27.69;42.95;101052.28;5078335;28;45289;-75
2021/07/20 02:39:54;;;;;;;;;17.00;16.50;;;;;27.71;42.70;101052.19;5079781;28;45412;-75
2021/07/20 02:42:19;;;;;;;;;18.50;18.50;;;;;27.71;42.21;101053.06;5079700;27;45234;-75
2021/07/20 02:44:45;;;;;;;;;18.50;18.00;;;;;27.63;42.52;101043.69;5078167;28;45790;-75
2021/07/20 02:47:10;;;;;;;;;20.25;18.25;;;;;27.66;42.25;101051.59;5060703;28;62458;-75
2021/07/20 02:49:36;;;;;;;;;19.25;18.75;;;;;27.61;42.30;101047.34;5061512;28;45555;-75
2021/07/20 02:52:02;;;;;;;;;18.25;16.50;;;;;27.57;42.44;101048.47;5078053;28;45359;-75
2021/07/20 02:54:27;;;;;;;;;15.25;15.25;;;;;27.53;42.64;101054.94;5077995;28;47328;-75
2021/07/20 02:56:53;;;;;;;;;20.25;18.75;;;;;27.56;42.20;101053.94;5080730;28;45858;-75
2021/07/20 02:59:20;;;;;;;;;22.00;19.25;;;;;27.55;42.24;101050.38;5078244;28;45516;-75
2021/07/20 03:01:46;;;;;;;;;16.25;14.75;;;;;27.53;42.55;101048.72;5075117;28;45264;-75
2021/07/20 03:04:11;;;;;;;;;13.25;13.25;;;;;27.49;42.44;101050.72;5080883;27;65278;-75
2021/07/20 03:06:38;;;;;;;;;21.00;16.25;;;;;27.50;42.44;101048.91;5082756;27;45201;-75
2021/07/20 03:09:03;;;;;;;;;20.00;16.75;;;;;27.53;42.51;101054.94;5081687;28;45228;-75
2021/07/20 03:11:37;;;;;;;;;19.50;18.50;;;;;27.55;42.28;101058.44;5064717;28;45450;-75
2021/07/20 03:14:05;;;;;;;;;18.75;16.75;;;;;27.54;42.58;101061.16;5081472;28;45689;-75
2021/07/20 03:16:30;;;;;;;;;16.50;15.00;;;;;27.56;42.53;101057.47;5081508;28;45415;-75
2021/07/20 03:18:55;;;;;;;;;18.00;16.00;;;;;27.59;42.59;101054.59;5059505;28;66358;-75
2021/07/20 03:21:21;;;;;;;;;17.00;17.00;;;;;27.60;42.54;101056.34;5064190;28;45322;-75
2021/07/20 03:23:46;;;;;;;;;15.50;15.50;;;;;27.58;42.53;101054.69;5082375;27;46293;-75
2021/07/20 03:26:12;;;;;;;;;14.00;14.00;;;;;27.54;42.43;101056.69;5081309;28;45413;-74
2021/07/20 03:28:37;;;;;;;;;17.25;15.00;;;;;27.53;42.51;101054.94;5064179;28;45338;-75
2021/07/20 03:31:03;;;;;;;;;18.75;17.50;;;;;27.52;42.50;101055.91;5082400;27;46318;-75
2021/07/20 03:33:29;;;;;;;;;16.75;15.75;;;;;27.55;42.43;101055.75;5064003;28;52136;-75
2021/07/20 03:35:54;;;;;;;;;17.75;16.50;;;;;27.54;41.63;101051.34;5064272;28;45292;-74
2021/07/20 03:38:20;;;;;;;;;18.50;15.25;;;;;27.49;41.92;101060.59;5080879;28;45189;-74
2021/07/20 03:40:47;;;;;;;;;16.00;14.75;;;;;27.46;41.86;101060.75;5081173;28;45250;-76
2021/07/20 03:43:12;;;;;;;;;20.75;18.75;;;;;27.42;42.04;101054.69;5063931;28;46605;-76
2021/07/20 03:45:38;;;;;;;;;16.75;14.75;;;;;27.41;42.02;101069.06;5064175;28;45386;-75
2021/07/20 03:48:03;;;;;;;;;15.50;15.50;;;;;27.34;41.96;101051.56;5081095;28;45349;-75
2021/07/20 03:50:29;;;;;;;;;14.00;14.00;;;;;27.37;41.75;101058.59;5080716;28;45531;-76
2021/07/20 03:52:54;;;;;;;;;17.75;17.25;;;;;27.36;41.75;101064.88;5081344;27;64362;-75
2021/07/20 03:55:20;;;;;;;;;18.00;17.00;;;;;27.30;41.53;101066.97;5064074;28;45405;-76
2021/07/20 03:57:45;;;;;;;;;17.00;15.75;;;;;27.28;41.83;101066.19;5063940;28;45864;-75
2021/07/20 04:00:11;;;;;;;;;15.50;14.75;;;;;27.27;41.26;101064.44;5064043;28;45514;-76
2021/07/20 04:03:20;;;;;;;;;18.75;18.75;;;;;27.25;41.94;101062.81;5080443;28;46737;-76
2021/07/20 04:05:27;;;;;;;;;22.25;20.75;;;;;27.22;41.73;101065.66;5078296;27;45520;-75
2021/07/20 04:07:53;;;;;;;;;20.75;18.50;;;;;27.24;41.50;101066.44;5063133;28;45272;-76
2021/07/20 04:10:18;;;;;;;;;20.00;18.00;;;;;27.19;41.54;101065.81;5063680;28;45303;-75
2021/07/20 04:12:44;;;;;;;;;18.50;18.00;;;;;27.21;41.78;101071.97;5080411;28;46241;-75
2021/07/20 04:15:12;;;;;;;;;16.50;16.25;;;;;27.19;41.52;101080.09;5050072;28;45187;-76
2021/07/20 04:17:37;;;;;;;;;20.00;17.00;;;;;27.20;41.87;101073.78;5064161;28;45346;-76
2021/07/20 04:20:04;;;;;;;;;18.75;18.00;;;;;27.18;41.14;101074.81;5062157;28;45251;-76
2021/07/20 04:22:30;;;;;;;;;21.50;21.00;;;;;27.12;40.97;101077.84;5063584;27;47316;-76
2021/07/20 04:24:55;;;;;;;;;18.00;18.00;;;;;27.12;41.43;101077.84;5062387;28;63281;-75
2021/07/20 04:27:20;;;;;;;;;19.75;19.25;;;;;27.11;41.55;101082.34;5063672;28;45846;-75
2021/07/20 04:29:46;;;;;;;;;17.75;17.50;;;;;27.12;41.92;101080.53;5063041;28;51074;-75
2021/07/20 04:32:11;;;;;;;;;17.00;17.00;;;;;27.11;41.63;101076.97;5080263;28;46105;-75
2021/07/20 04:34:37;;;;;;;;;21.00;19.25;;;;;27.13;41.72;101088.47;5080275;28;45234;-76
2021/07/20 04:37:05;;;;;;;;;22.00;20.00;;;;;27.10;41.58;101088.63;5081268;27;45228;-76
2021/07/20 04:39:35;;;;;;;;;26.00;23.75;;;;;27.08;41.32;101077.13;5080252;28;45428;-76
2021/07/20 04:42:04;;;;;;;;;22.75;20.75;;;;;27.05;41.71;101085.34;5080191;28;45940;-75
2021/07/20 04:44:30;;;;;;;;;27.25;24.00;;;;;27.02;41.54;101082.81;5080148;28;45764;-75
2021/07/20 04:46:55;;;;;;;;;25.25;23.25;;;;;27.02;41.85;101083.66;5081580;27;45319;-76
2021/07/20 04:49:21;;;;;;;;;24.50;22.50;;;;;27.03;41.84;101085.44;5079146;28;65321;-75
2021/07/20 04:51:46;;;;;;;;;20.75;20.00;;;;;27.01;41.93;101086.41;5079653;28;45354;-75
2021/07/20 04:54:14;;;;;;;;;24.75;22.75;;;;;26.97;41.41;101088.38;5063075;28;45460;-75
2021/07/20 04:56:39;;;;;;;;;23.25;23.25;;;;;26.94;41.74;101085.88;5063298;28;45276;-75
2021/07/20 04:59:04;;;;;;;;;25.00;23.00;;;;;26.89;41.73;101092.44;5081075;27;45349;-75
2021/07/20 05:01:30;;;;;;;;;23.00;20.25;;;;;26.86;42.14;101093.47;5062441;28;62888;-76
2021/07/20 05:03:55;;;;;;;;;23.00;22.75;;;;;26.87;41.73;101099.69;5062067;28;58829;-75
2021/07/20 05:06:20;;;;;;;;;27.00;25.75;;;;;26.84;42.18;101097.16;5079759;28;45811;-75
2021/07/20 05:08:46;;;;;;;;;24.75;23.00;;;;;26.80;41.62;101096.47;5080818;27;45244;-75
2021/07/20 05:11:11;;;;;;;;;26.75;24.25;;;;;26.82;41.79;101099.91;5078872;28;66388;-76
2021/07/20 05:13:37;;;;;;;;;25.00;23.50;;;;;26.80;42.22;101098.28;5080621;27;45211;-75
2021/07/20 05:16:05;;;;;;;;;28.25;25.00;;;;;26.81;41.69;101100.00;5079706;28;45814;-75
2021/07/20 05:18:32;;;;;;;;;25.25;23.25;;;;;26.79;41.91;101102.75;5095279;27;45347;-75
2021/07/20 05:20:58;;;;;;;;;26.00;26.00;;;;;26.73;41.75;101105.75;5084901;27;45393;-75
2021/07/20 05:23:24;;;;;;;;;29.50;25.50;;;;;26.69;42.02;101102.38;5079062;28;45378;-76
2021/07/20 05:25:57;;;;;;;;;23.25;20.75;;;;;26.65;41.85;101106.16;5062442;28;45437;-75
2021/07/20 05:28:26;;;;;;;;;26.75;25.75;;;;;26.62;42.31;101100.09;5062411;28;45366;-76
2021/07/20 05:30:58;;;;;;;;;25.75;25.25;;;;;26.63;42.00;101104.50;5046571;28;47999;-75
2021/07/20 05:33:24;;;;;;;;;28.00;25.00;;;;;26.65;42.17;101106.16;5062372;28;45462;-75
2021/07/20 05:35:51;;;;;;;;;29.50;27.50;;;;;26.69;41.89;101109.56;5063436;28;45379;-72
2021/07/20 05:38:17;;;;;;;;;28.75;27.00;;;;;26.70;42.55;101105.91;5079154;28;45196;-79
2021/07/20 05:40:42;;;;;;;;;32.75;29.25;;;;;26.73;42.41;101111.09;5062414;28;46461;-73
2021/07/20 05:43:08;;;;;;;;;29.50;27.25;;;;;26.74;41.90;101110.16;5061826;28;51600;-76
2021/07/20 05:45:35;;;;;;;;;27.50;26.00;;;;;26.71;42.26;101105.84;5079342;28;45179;-77
2021/07/20 05:48:00;;;;;;;;;28.75;28.25;;;;;26.73;41.73;101108.44;5045753;28;45532;-74
2021/07/20 05:50:26;;;;;;;;;34.25;30.25;;;;;26.74;41.56;101115.50;5062132;28;45432;-74
2021/07/20 05:52:51;;;;;;;;;31.75;27.25;;;;;26.69;42.17;101115.78;5075483;28;45354;-76
2021/07/20 05:55:18;;;;;;;;;32.00;28.75;;;;;26.69;41.81;101114.91;5033459;28;45362;-75
2021/07/20 05:57:48;;;;;;;;;32.25;28.25;;;;;26.74;41.67;101126.22;5058649;28;45336;-74
2021/07/20 06:00:15;;;;;;;;;32.50;30.00;;;;;26.72;42.05;101115.59;5075281;28;45952;-74
2021/07/20 06:02:40;;;;;;;;;34.00;30.00;;;;;26.77;41.89;101121.59;5075332;28;45509;-72
2021/07/20 06:05:12;;;;;;;;;27.00;26.25;;;;;26.81;42.08;101122.28;5070487;28;59227;-74
2021/07/20 06:07:38;;;;;;;;;30.75;28.00;;;;;26.81;41.54;101124.97;5062468;28;45233;-74
2021/07/20 06:10:04;;;;;;;;;31.25;30.00;;;;;26.85;42.07;101129.22;5044980;28;47488;-74
2021/07/20 06:12:30;;;;;;;;;32.75;27.50;;;;;26.88;41.67;101129.06;5080165;27;45230;-75
2021/07/20 06:14:55;;;;;;;;;28.25;28.00;;;;;26.92;41.98;101129.75;5042171;28;45361;-74
2021/07/20 06:17:23;;;;;;;;;26.75;24.50;;;;;26.93;41.56;101126.13;5061882;28;45439;-74
2021/07/20 06:19:49;;;;;;;;;31.00;27.50;;;;;26.93;41.74;101124.34;5068609;27;45991;-75
2021/07/20 06:22:14;;;;;;;;;32.50;29.25;;;;;26.94;41.53;101123.38;5079775;27;45395;-75
2021/07/20 06:24:43;;;;;;;;;32.50;29.50;;;;;26.94;41.28;101127.88;5079494;27;49448;-73
2021/07/20 06:27:12;;;;;;;;;29.00;28.00;;;;;26.94;40.63;101130.56;5061909;28;45314;-74
2021/07/20 06:29:38;;;;;;;;;27.75;26.50;;;;;26.94;40.82;101133.25;5061457;28;47276;-73
2021/07/20 06:32:03;;;;;;;;;31.00;26.75;;;;;26.94;40.75;101127.88;5081373;28;45429;-74
2021/07/20 06:34:29;;;;;;;;;31.50;30.50;;;;;26.99;40.70;101137.38;5065355;28;45371;-83
2021/07/20 06:36:55;;;;;;;;;36.25;30.50;;;;;27.01;40.57;101130.13;5065106;28;45878;-80
2021/07/20 06:39:20;;;;;;;;;33.00;30.50;;;;;27.01;40.61;101126.59;5046385;28;47977;-79
2021/07/20 06:41:46;;;;;;;;;34.25;31.00;;;;;27.04;40.50;101131.84;5064358;28;68569;-78
2021/07/20 06:44:11;;;;;;;;;35.50;30.00;;;;;27.04;39.96;101131.84;5064971;28;45610;-76
2021/07/20 06:46:37;;;;;;;;;31.50;29.25;;;;;27.05;39.95;101136.25;5064570;28;61101;-77
2021/07/20 06:49:02;;;;;;;;;34.50;32.00;;;;;27.08;39.53;101132.53;5081903;28;45306;-75
2021/07/20 06:51:31;;;;;;;;;36.75;33.00;;;;;27.10;39.76;101130.63;5047287;28;61106;-76
2021/07/20 06:53:57;;;;;;;;;25.75;24.50;;;;;27.12;39.71;101134.97;5063076;28;45434;-77
2021/07/20 06:56:34;;;;;;;;;33.00;29.75;;;;;27.11;40.16;101137.75;5081922;28;45333;-82
2021/07/20 06:58:59;;;;;;;;;29.50;28.00;;;;;27.14;39.82;101145.59;5065304;28;45423;-76
2021/07/20 07:01:26;;;;;;;;;35.50;31.25;;;;;27.19;40.01;101143.53;5064813;28;45231;-77
2021/07/20 07:04:05;;;;;;;;;32.00;30.00;;;;;27.24;39.84;101146.84;5075820;28;45307;-77
2021/07/20 07:06:33;;;;;;;;;34.00;30.00;;;;;27.29;40.01;101145.66;5072213;28;45437;-77
2021/07/20 07:08:58;;;;;;;;;30.75;28.00;;;;;27.33;39.87;101143.66;5080630;27;46312;-81
2021/07/20 07:11:24;;;;;;;;;34.25;32.00;;;;;27.40;40.83;101146.88;5050951;28;45699;-82
2021/07/20 07:13:49;;;;;;;;;32.75;29.50;;;;;27.44;40.35;101151.09;5028695;28;45367;-87
2021/07/20 07:16:15;;;;;;;;;34.50;29.50;;;;;27.48;40.41;101148.19;5033518;28;47710;-84
2021/07/20 07:18:41;;;;;;;;;37.00;32.75;;;;;27.55;39.80;101148.72;5056994;28;47116;-82
2021/07/20 07:21:06;;;;;;;;;30.00;29.00;;;;;27.55;40.42;101143.38;5060549;28;45495;-83
2021/07/20 07:23:32;;;;;;;;;31.75;30.25;;;;;27.65;39.64;101149.09;5068828;28;45835;-78
2021/07/20 07:25:59;;;;;;;;;30.50;27.50;;;;;27.66;39.39;101148.13;5060303;28;45233;-79
2021/07/20 07:28:24;;;;;;;;;32.75;28.50;;;;;27.68;38.96;101151.63;5044119;28;47602;-86
2021/07/20 07:30:50;;;;;;;;;32.75;29.50;;;;;27.71;38.99;101160.34;5044334;28;45418;-84
2021/07/20 07:33:16;;;;;;;;;36.25;31.75;;;;;27.72;39.35;101161.25;5027681;28;45292;-85
2021/07/20 07:35:41;;;;;;;;;33.75;30.25;;;;;27.71;38.57;101162.16;5043124;28;45631;-77
2021/07/20 07:38:06;;;;;;;;;38.25;33.50;;;;;27.74;38.68;101167.38;5070555;28;63579;-80
2021/07/20 07:40:32;;;;;;;;;34.00;31.50;;;;;27.73;38.29;101160.28;5077870;27;45414;-77
2021/07/20 07:42:58;;;;;;;;;33.50;30.00;;;;;27.76;37.91;101157.41;5062813;28;45342;-78
2021/07/20 07:45:24;;;;;;;;;35.75;30.00;;;;;27.75;38.50;101158.38;5063778;28;45967;-76
2021/07/20 07:47:49;;;;;;;;;33.00;30.25;;;;;27.74;38.27;101162.88;5062522;28;45358;-76
2021/07/20 07:50:14;;;;;;;;;33.00;31.00;;;;;27.73;38.08;101158.47;5044655;28;58808;-75
2021/07/20 07:52:40;;;;;;;;;37.00;30.25;;;;;27.73;38.07;101152.25;5053925;28;45372;-77
2021/07/20 07:55:06;;;;;;;;;30.75;29.50;;;;;27.77;38.10;101159.16;5077280;28;45358;-79
2021/07/20 07:57:39;;;;;;;;;30.00;28.00;;;;;27.78;37.51;101158.19;5060194;28;47583;-78
2021/07/20 08:00:06;;;;;;;;;35.75;30.00;;;;;27.76;38.04;101152.91;5063964;28;45517;-88
2021/07/20 08:02:34;;;;;;;;;29.75;28.25;;;;;27.77;38.17;101159.16;5043653;28;45342;-88
2021/07/20 08:04:59;;;;;;;;;38.50;30.50;;;;;27.84;37.70;101165.91;5038704;28;45352;-84
2021/07/20 08:07:24;;;;;;;;;28.50;27.50;;;;;27.79;37.86;101155.41;5063527;28;47931;-86
2021/07/20 08:09:53;;;;;;;;;27.50;26.50;;;;;27.80;37.57;101154.50;5060231;28;45450;-85
2021/07/20 08:12:21;;;;;;;;;30.00;27.25;;;;;27.77;37.51;101146.59;5059463;28;45421;-76
2021/07/20 08:14:47;;;;;;;;;32.50;31.00;;;;;27.84;37.36;101161.41;5063455;28;45212;-76
2021/07/20 08:17:12;;;;;;;;;30.50;28.50;;;;;27.84;37.73;101149.81;5079329;28;67517;-86
2021/07/20 08:19:38;;;;;;;;;28.00;26.25;;;;;27.84;37.48;101156.03;5047140;28;45324;-92
2021/07/20 08:22:08;;;;;;;;;31.00;28.75;;;;;27.86;37.27;101156.81;5046198;28;45434;-80
2021/07/20 08:24:34;;;;;;;;;29.75;26.50;;;;;27.84;38.35;101155.19;5063839;28;44807;-82
2021/07/20 08:27:04;;;;;;;;;28.00;26.50;;;;;27.90;37.77;101157.53;5063365;28;45293;-81
2021/07/20 08:29:36;;;;;;;;;26.50;23.25;;;;;27.91;37.93;101151.19;5080153;28;45310;-84
2021/07/20 08:32:20;;;;;;;;;33.25;30.75;;;;;27.93;38.00;101151.13;5050956;28;45473;-83
2021/07/20 08:34:49;;;;;;;;;34.25;30.00;;;;;28.00;37.77;101160.56;5063281;28;45513;-82
2021/07/20 08:37:14;;;;;;;;;32.00;30.25;;;;;28.00;38.35;101163.22;5076498;28;45432;-87
2021/07/20 08:40:29;;;;;;;;;;;;;;;;;;;;;
2021/07/20 08:46:44;;;;;;;;;26.50;24.00;;;;;28.06;37.13;101158.38;5071208;28;45353;-88
2021/07/20 08:49:31;;;;;;;;;27.00;26.00;;;;;28.05;37.03;101156.63;5081106;27;46804;-72
2021/07/20 08:52:08;;;;;;;;;26.50;24.75;;;;;28.03;37.13;101163.91;5060238;27;45291;-75
2021/07/20 08:54:38;;;;;;;;;26.00;24.50;;;;;27.99;37.76;101157.00;5078647;28;45384;-75
2021/07/20 08:57:07;;;;;;;;;26.50;23.50;;;;;27.96;37.47;101157.16;5078931;28;45425;-75
2021/07/20 09:00:11;;;;;;;;;26.75;25.25;;;;;27.98;37.64;101166.00;5096030;27;46695;-78
2021/07/20 09:03:22;;;;;;;;;23.75;22.00;;;;;28.01;37.91;101165.81;5059207;28;45524;-77
2021/07/20 09:06:03;;;;;;;;;29.75;28.25;;;;;27.97;37.83;101164.25;5077970;28;45593;-78
2021/07/20 09:09:07;;;;;;;;;;;;;;;;;;;;;
2021/07/20 09:12:02;;;;;;;;;26.75;26.00;;;;;27.87;37.80;101152.31;5071974;28;75121;-80
2021/07/20 09:15:03;;;;;;;;;28.00;26.50;;;;;27.92;37.98;101155.59;5076049;27;45528;-76
2021/07/20 09:17:51;;;;;;;;;;;;;;;;;;;;;
2021/07/20 09:20:46;;;;;;;;;;;;;;;;;;;;;
2021/07/20 09:23:25;;;;;;;;;30.25;27.50;;;;;28.10;38.33;101156.38;5058469;28;74225;-81
2021/07/20 09:26:32;;;;;;;;;24.25;24.00;;;;;28.14;38.18;101150.72;5062042;28;45434;-80
2021/07/20 09:33:05;;;;;;;;;25.75;23.50;;;;;28.23;38.69;101165.44;5068340;28;45541;-81
2021/07/20 09:35:55;;;;;;;;;23.00;22.25;;;;;28.22;38.15;101160.16;5059072;28;47393;-81
2021/07/20 09:39:10;;;;;;;;;27.50;27.00;;;;;28.22;38.42;101147.59;5064844;28;45553;-80
2021/07/20 09:45:33;;;;;;;;;28.25;23.00;;;;;28.31;38.84;101159.66;5075171;28;45536;-80
2021/07/20 09:48:21;;;;;;;;;;;;;;;;;;;;;
2021/07/20 09:51:22;;;;;;;;;;;;;;;;;;;;;
2021/07/20 09:54:10;;;;;;;;;23.00;22.25;;;;;28.30;38.27;101166.00;5079130;28;69171;-81
2021/07/20 09:57:41;;;;;;;;;;;;;;;;;;;;;
2021/07/20 10:04:51;;;;;;;;;26.75;25.00;;;;;28.24;38.35;101152.91;5038300;28;45448;-81
2021/07/20 10:08:33;;;;;;;;;25.75;25.00;;;;;28.20;38.96;101146.84;5079797;28;45412;-80
2021/07/20 10:11:47;;;;;;;;;;;;;;;;;;;;;
2021/07/20 10:14:48;;;;;;;;;24.50;23.25;;;;;28.30;38.55;101141.84;5082283;27;75279;-80
2021/07/20 10:21:06;;;;;;;;;23.75;23.25;;;;;28.31;39.24;101132.81;5038322;28;45332;-80
2021/07/20 10:24:15;;;;;;;;;;;;;;;;;;;;;
2021/07/20 10:27:45;;;;;;;;;;;;;;;;;;;;;
2021/07/20 10:30:46;;;;;;;;;23.00;21.75;;;;;28.31;38.32;101122.09;5019506;28;72030;-80
2021/07/20 10:33:46;;;;;;;;;23.50;22.75;;;;;28.34;38.85;101129.97;5066797;27;45291;-80
2021/07/20 10:36:26;;;;;;;;;24.75;23.25;;;;;28.37;38.55;101124.41;5070780;28;45769;-80
2021/07/20 10:39:11;;;;;;;;;31.75;28.00;;;;;28.34;38.10;101114.72;5049133;28;48487;-80
2021/07/20 10:42:17;;;;;;;;;27.75;26.25;;;;;28.39;38.44;101123.34;5049266;28;45260;-80
2021/07/20 10:45:16;;;;;;;;;25.75;24.25;;;;;28.40;38.25;101127.78;5074714;28;45227;-80
2021/07/20 10:48:17;;;;;;;;;28.75;27.75;;;;;28.39;38.01;101127.88;5081685;28;45342;-80
2021/07/20 10:51:18;;;;;;;;;26.50;25.50;;;;;28.39;37.81;101120.69;5020288;28;45796;-80
2021/07/20 10:53:51;;;;;;;;;32.25;29.50;;;;;28.41;37.61;101120.63;5064196;27;45517;-80
2021/07/20 10:56:48;;;;;;;;;28.50;25.50;;;;;28.38;38.29;101116.25;5081525;28;45463;-81
2021/07/20 10:59:29;;;;;;;;;25.50;25.25;;;;;28.41;38.47;101109.88;5067069;28;45417;-81
2021/07/20 11:02:07;;;;;;;;;25.25;23.25;;;;;28.42;38.63;101111.59;5064584;28;48548;-81
2021/07/20 11:05:19;;;;;;;;;26.75;25.50;;;;;28.43;38.04;101107.94;5070641;28;45475;-81
2021/07/20 11:07:46;;;;;;;;;30.00;26.75;;;;;28.41;38.61;101108.06;5098546;27;45372;-81
2021/07/20 11:10:22;;;;;;;;;26.00;25.25;;;;;28.39;38.46;101109.06;5064356;28;45474;-81
2021/07/20 11:12:52;;;;;;;;;28.25;25.75;;;;;28.44;38.29;101107.00;5073219;28;45523;-72
2021/07/20 11:15:21;;;;;;;;;27.50;26.25;;;;;28.46;38.50;101115.81;5079709;28;45292;-78
2021/07/20 11:17:47;;;;;;;;;25.25;23.75;;;;;28.45;39.24;101108.72;5082475;28;45582;-76
2021/07/20 11:20:13;;;;;;;;;29.50;28.50;;;;;28.43;39.45;101108.81;5064202;28;45373;-77
2021/07/20 11:22:40;;;;;;;;;24.00;23.50;;;;;28.45;39.42;101106.03;5080464;27;45725;-76
2021/07/20 11:25:06;;;;;;;;;28.25;26.25;;;;;28.44;39.56;101107.00;5064351;28;45275;-76
2021/07/20 11:27:32;;;;;;;;;30.75;28.50;;;;;28.42;38.79;101103.53;5080876;28;45478;-76
2021/07/20 11:29:57;;;;;;;;;26.75;25.75;;;;;28.39;38.99;101104.56;5064241;28;45264;-75
2021/07/20 11:32:32;;;;;;;;;24.00;24.00;;;;;28.38;39.47;101115.41;5080832;28;54919;-76
2021/07/20 11:35:08;;;;;;;;;32.50;28.25;;;;;28.36;38.97;101103.91;5063988;28;45451;-79
2021/07/20 11:37:37;;;;;;;;;27.25;27.25;;;;;28.37;38.83;101101.13;5081105;28;45381;-77
2021/07/20 11:40:16;;;;;;;;;26.25;22.50;;;;;28.38;38.89;101088.56;5057351;28;45370;-75
2021/07/20 11:43:06;;;;;;;;;26.50;25.50;;;;;28.39;39.47;101101.88;5078552;27;48363;-76
2021/07/20 11:45:46;;;;;;;;;25.75;23.00;;;;;28.44;39.49;101096.25;5073978;28;45335;-73
2021/07/20 11:48:12;;;;;;;;;28.50;22.50;;;;;28.47;39.95;101088.00;5063282;28;45211;-73
2021/07/20 11:50:39;;;;;;;;;26.50;25.00;;;;;28.50;39.70;101082.47;5080290;28;45539;-78
2021/07/20 11:53:21;;;;;;;;;23.00;22.00;;;;;28.53;39.40;101086.78;5077270;28;47123;-75
2021/07/20 11:55:59;;;;;;;;;26.25;23.00;;;;;28.53;39.10;101087.66;5060805;28;45186;-75
2021/07/20 11:58:49;;;;;;;;;24.00;22.75;;;;;28.58;39.06;101092.72;5082184;27;45311;-72
2021/07/20 12:01:32;;;;;;;;;30.00;28.25;;;;;28.59;39.28;101087.28;5074532;27;45514;-72
2021/07/20 12:04:22;;;;;;;;;30.50;28.00;;;;;28.60;39.10;101083.63;5080752;28;45513;-74
2021/07/20 12:06:52;;;;;;;;;28.50;25.25;;;;;28.60;39.04;101086.31;5081535;27;45172;-72
2021/07/20 12:09:35;;;;;;;;;30.75;27.75;;;;;28.60;39.55;101086.31;5079739;28;45794;-72